SILO ALERT LOG


Silo ID Alert Type Alert Message Silo Type Points Depth (mm) Strength Temperature (°C) Humidity (%) Height (mm) Volume (㎥) Weight (t) Flag Time
DJSSD01 Humidity 습도센서 측정값이 80% 초과 793 2571 4665 5 83.8 5508 766.654 484.678 0 2024-01-11 02:39:33.000
DJSSD05 Temperature 온도센서 측정값이 0도 미만 845 2546 4868 -45.4 43.7 5533 770.09 486.851 0 2024-01-11 02:39:33.000
DJSSD04 Temperature 온도센서 상태 이상 0 8200 0 -999 -999 -120 -16.702 0 31 2024-01-11 02:39:33.000
DJSAD12 Humidity 습도센서 측정값이 80% 초과 0 7700 0 2.5 86.7 -120 -17.075 0 31 2024-01-11 02:39:33.000
DJHNR01 Humidity 습도센서 측정값이 80% 초과 호퍼 471 4307 5026 3.5 99.9 11072 472.84 298.929 13 2024-01-11 02:39:33.000
DJSAD16 Humidity 습도센서 측정값이 80% 초과 83 6484 3418 3.5 80.5 1095 109.121 68.987 11 2024-01-11 02:39:32.000
DJSSD11 Temperature 온도센서 측정값이 0도 미만 호퍼 444 7402 147 -2.7 81.9 3827 28.629 15.603 0 2024-01-11 02:39:32.000
DJSSD11 Humidity 습도센서 측정값이 80% 초과 호퍼 444 7402 147 -2.7 81.9 3827 28.629 15.603 0 2024-01-11 02:39:32.000
DJHNR14 Temperature 온도센서 측정값이 0도 미만 호퍼 28 2925 4403 -1.8 72.7 7454 106.853 67.553 11 2024-01-11 02:39:32.000
DJSAD17 Humidity 습도센서 측정값이 80% 초과 448 3117 4889 3.3 80.5 4462 444.335 280.909 0 2024-01-11 02:39:32.000
DJSSD09 Temperature 온도센서 측정값이 0도 미만 123 3001 3259 -45.4 0 4678 651.102 411.627 11 2024-01-11 02:39:31.000
DJSAD18 Humidity 습도센서 측정값이 80% 초과 121 1388 5840 3.9 80.8 6191 616.543 389.779 11 2024-01-11 02:39:31.000
DJDJD01 Humidity 습도센서 측정값이 80% 초과 90 9447 3936 0.1 80.2 -1767 -214.188 0 0 2024-01-11 02:39:30.000
DJHNR03 Temperature 온도센서 상태 이상 호퍼 0 15500 0 -999 -999 -119 0 0 31 2024-01-11 02:39:24.000
DJSSD12 Temperature 온도센서 상태 이상 호퍼 0 11350 0 -999 -999 -120 0 0 31 2024-01-11 02:39:24.000
DJHNR12 Humidity 습도센서 측정값이 80% 초과 호퍼 0 10500 0 -2.4 82.7 -120 0 0 31 2024-01-11 02:39:23.000
DJHNR12 Temperature 온도센서 측정값이 0도 미만 호퍼 0 10500 0 -2.4 82.7 -120 0 0 31 2024-01-11 02:39:23.000
DJSAD01 Humidity 습도센서 측정값이 80% 초과 466 1502 7312 0.9 88.4 7277 301.277 190.467 0 2024-01-11 01:39:40.000
DJDJD03 Humidity 습도센서 측정값이 80% 초과 65 4692 5062 1.8 80.7 2987 361.936 228.816 0 2024-01-11 01:39:39.000
DJSAD03 Humidity 습도센서 측정값이 80% 초과 445 1718 6205 2 84.5 7061 292.331 184.812 0 2024-01-11 01:39:39.000

[첫 페이지] [10022] [10023] [10024] [10025] 10026 [10027] [10028] [10029] [10030] [마지막 페이지]